Date,TemperatureHighF,TemperatureAvgF,TemperatureLowF,DewpointHighF,DewpointAvgF,DewpointLowF,HumidityHigh,HumidityAvg,HumidityLow,PressureMaxIn,PressureMinIn,WindSpeedMaxMPH,WindSpeedAvgMPH,GustSpeedMaxMPH,PrecipitationSumIn
2013-2-1,19.0,11.0,9.0,12.0,5.1,1.0,85,76,66,29.92,29.56,18,8,28,0.00
2013-2-2,12.0,12.0,12.0,3.0,3.0,3.0,66,66,66,29.92,29.92,7,7,0,0.00
2013-2-3,12.0,12.0,12.0,3.0,3.0,3.0,66,66,66,29.92,29.92,7,7,0,0.00
2013-2-4,18.0,4.4,-8.0,3.0,-3.4,-9.0,91,71,40,29.94,29.85,10,3,16,0.00
2013-2-5,21.0,6.2,-13.0,9.0,-4.6,-17.0,91,63,37,30.00,29.84,7,1,0,0.00
2013-2-6,27.0,16.8,3.0,25.0,7.7,-6.0,100,68,40,30.39,29.81,16,7,24,0.00
2013-2-7,12.0,5.5,0.0,0.0,-3.2,-8.0,91,66,51,30.56,30.33,13,7,22,0.00
2013-2-8,16.0,8.6,5.0,12.0,5.4,-2.0,92,87,65,30.33,29.98,17,11,24,0.00
2013-2-9,16.0,9.0,-9.0,10.0,3.7,-13.0,92,79,52,30.38,30.05,17,7,22,0.00
2013-2-10,32.0,10.5,-13.0,9.0,-1.9,-17.0,92,61,28,30.44,30.11,8,2,0,0.00
2013-2-11,43.0,28.7,14.0,39.0,24.2,7.0,100,83,67,30.11,29.55,25,8,32,0.00
2013-2-12,36.0,33.4,30.0,34.0,31.0,25.0,100,91,74,29.85,29.57,22,15,29,0.00
2013-2-13,34.0,30.3,25.0,28.0,26.8,23.0,100,86,69,29.83,29.74,13,6,0,0.00
2013-2-14,36.0,31.1,27.0,32.0,24.8,21.0,100,77,55,29.90,29.76,9,4,0,0.00
2013-2-15,37.0,33.9,25.0,37.0,27.7,18.0,100,78,59,29.97,29.74,33,16,41,0.00
2013-2-16,27.0,15.7,1.0,21.0,6.6,0.0,91,68,45,30.06,29.96,9,3,0,0.00
2013-2-17,12.0,4.8,-8.0,1.0,-1.6,-11.0,91,74,56,30.02,29.84,16,7,20,0.00
2013-2-18,19.0,8.8,0.0,3.0,-0.8,-6.0,84,65,44,30.23,30.01,14,8,18,0.00
2013-2-19,37.0,27.8,14.0,37.0,19.1,1.0,100,71,48,30.05,29.57,25,8,35,0.00
2013-2-20,30.0,24.9,12.0,25.0,19.1,9.0,92,78,63,29.89,29.63,25,17,32,0.00
2013-2-21,19.0,12.6,7.0,19.0,7.6,0.0,100,80,71,30.40,29.89,16,10,23,0.00
2013-2-22,36.0,27.4,19.0,25.0,22.6,19.0,100,83,64,30.42,30.13,9,4,0,0.00
2013-2-23,39.0,34.0,30.0,36.0,32.0,25.0,100,92,74,30.13,29.85,9,2,0,0.00
2013-2-24,36.0,33.7,32.0,34.0,31.0,27.0,100,91,69,29.96,29.81,12,7,0,0.00
2013-2-25,36.0,33.1,32.0,34.0,33.0,32.0,100,100,93,30.23,29.96,7,3,0,0.00
2013-2-26,45.0,35.4,27.0,34.0,29.0,25.0,100,79,45,30.28,30.01,10,3,16,0.00
2013-2-27,36.0,33.8,32.0,36.0,32.7,30.0,100,96,86,30.01,29.62,17,10,25,0.00
2013-2-28,37.0,34.8,32.0,36.0,34.4,32.0,100,98,86,29.66,29.51,10,4,0,0.00